sensor_id;sensor_type;location;lat;lon;timestamp;P1;durP1;ratioP1;P2;durP2;ratioP2
8628;SDS011;4352;49.404;11.092;2022-11-15T00:02:16;10.10;;;6.83;;
8628;SDS011;4352;49.404;11.092;2022-11-15T00:04:43;9.20;;;6.83;;
8628;SDS011;4352;49.404;11.092;2022-11-15T00:07:12;9.23;;;6.83;;
8628;SDS011;4352;49.404;11.092;2022-11-15T00:09:39;9.70;;;6.97;;
8628;SDS011;4352;49.404;11.092;2022-11-15T00:12:08;9.07;;;6.90;;
8628;SDS011;4352;49.404;11.092;2022-11-15T00:14:35;9.63;;;6.90;;
8628;SDS011;4352;49.404;11.092;2022-11-15T00:17:02;9.20;;;6.90;;
8628;SDS011;4352;49.404;11.092;2022-11-15T00:19:29;10.60;;;7.37;;
8628;SDS011;4352;49.404;11.092;2022-11-15T00:21:56;8.80;;;6.23;;
8628;SDS011;4352;49.404;11.092;2022-11-15T00:24:23;11.33;;;7.17;;
8628;SDS011;4352;49.404;11.092;2022-11-15T00:26:51;9.33;;;7.43;;
8628;SDS011;4352;49.404;11.092;2022-11-15T00:29:19;13.13;;;7.37;;
8628;SDS011;4352;49.404;11.092;2022-11-15T00:31:46;10.90;;;7.40;;
8628;SDS011;4352;49.404;11.092;2022-11-15T00:34:13;10.93;;;7.07;;
8628;SDS011;4352;49.404;11.092;2022-11-15T00:36:40;9.20;;;6.90;;
8628;SDS011;4352;49.404;11.092;2022-11-15T00:39:07;9.63;;;6.97;;
8628;SDS011;4352;49.404;11.092;2022-11-15T00:41:35;12.30;;;7.87;;
8628;SDS011;4352;49.404;11.092;2022-11-15T00:44:02;9.80;;;6.83;;
8628;SDS011;4352;49.404;11.092;2022-11-15T00:46:30;12.10;;;7.50;;
8628;SDS011;4352;49.404;11.092;2022-11-15T00:48:57;10.77;;;7.50;;
8628;SDS011;4352;49.404;11.092;2022-11-15T00:51:24;10.77;;;7.50;;
8628;SDS011;4352;49.404;11.092;2022-11-15T00:53:52;12.30;;;8.03;;
8628;SDS011;4352;49.404;11.092;2022-11-15T00:56:19;10.57;;;7.60;;
8628;SDS011;4352;49.404;11.092;2022-11-15T00:58:46;11.97;;;8.30;;
8628;SDS011;4352;49.404;11.092;2022-11-15T01:01:13;11.70;;;7.93;;
8628;SDS011;4352;49.404;11.092;2022-11-15T01:03:43;13.33;;;9.13;;
8628;SDS011;4352;49.404;11.092;2022-11-15T01:06:11;12.77;;;8.10;;
8628;SDS011;4352;49.404;11.092;2022-11-15T01:08:38;12.47;;;7.67;;
8628;SDS011;4352;49.404;11.092;2022-11-15T01:11:06;11.17;;;7.93;;
8628;SDS011;4352;49.404;11.092;2022-11-15T01:13:33;12.87;;;9.07;;
8628;SDS011;4352;49.404;11.092;2022-11-15T01:16:05;12.40;;;8.80;;
8628;SDS011;4352;49.404;11.092;2022-11-15T01:18:33;12.03;;;8.33;;
8628;SDS011;4352;49.404;11.092;2022-11-15T01:21:05;12.43;;;8.20;;
8628;SDS011;4352;49.404;11.092;2022-11-15T01:23:32;9.87;;;7.80;;
8628;SDS011;4352;49.404;11.092;2022-11-15T01:26:00;10.70;;;7.83;;
8628;SDS011;4352;49.404;11.092;2022-11-15T01:28:29;14.00;;;7.97;;
8628;SDS011;4352;49.404;11.092;2022-11-15T01:30:57;11.97;;;7.70;;
8628;SDS011;4352;49.404;11.092;2022-11-15T01:33:24;10.73;;;7.67;;
8628;SDS011;4352;49.404;11.092;2022-11-15T01:35:51;9.37;;;7.20;;
8628;SDS011;4352;49.404;11.092;2022-11-15T01:38:20;14.47;;;8.60;;
8628;SDS011;4352;49.404;11.092;2022-11-15T01:40:47;11.17;;;7.57;;
8628;SDS011;4352;49.404;11.092;2022-11-15T01:43:21;13.93;;;7.27;;
8628;SDS011;4352;49.404;11.092;2022-11-15T01:45:49;12.17;;;7.90;;
8628;SDS011;4352;49.404;11.092;2022-11-15T01:48:18;11.30;;;7.47;;
8628;SDS011;4352;49.404;11.092;2022-11-15T01:50:45;14.20;;;8.80;;
8628;SDS011;4352;49.404;11.092;2022-11-15T01:53:13;12.20;;;7.70;;
8628;SDS011;4352;49.404;11.092;2022-11-15T01:55:42;14.80;;;8.17;;
8628;SDS011;4352;49.404;11.092;2022-11-15T01:58:09;10.20;;;7.70;;
8628;SDS011;4352;49.404;11.092;2022-11-15T02:00:36;11.97;;;7.83;;
8628;SDS011;4352;49.404;11.092;2022-11-15T02:03:03;10.67;;;7.77;;
8628;SDS011;4352;49.404;11.092;2022-11-15T02:05:30;12.93;;;8.27;;
8628;SDS011;4352;49.404;11.092;2022-11-15T02:07:59;12.00;;;8.37;;
8628;SDS011;4352;49.404;11.092;2022-11-15T02:10:26;12.70;;;8.27;;
8628;SDS011;4352;49.404;11.092;2022-11-15T02:12:55;14.37;;;8.83;;
8628;SDS011;4352;49.404;11.092;2022-11-15T02:15:23;12.67;;;9.00;;
8628;SDS011;4352;49.404;11.092;2022-11-15T02:18:04;14.23;;;9.33;;
8628;SDS011;4352;49.404;11.092;2022-11-15T02:26:18;17.50;;;9.83;;
8628;SDS011;4352;49.404;11.092;2022-11-15T02:28:55;13.47;;;9.53;;
8628;SDS011;4352;49.404;11.092;2022-11-15T02:31:28;16.20;;;9.73;;
8628;SDS011;4352;49.404;11.092;2022-11-15T02:33:59;15.80;;;9.80;;
8628;SDS011;4352;49.404;11.092;2022-11-15T02:36:30;14.80;;;9.53;;
8628;SDS011;4352;49.404;11.092;2022-11-15T02:39:02;16.50;;;9.43;;
8628;SDS011;4352;49.404;11.092;2022-11-15T02:41:34;16.23;;;10.50;;
8628;SDS011;4352;49.404;11.092;2022-11-15T02:44:03;12.47;;;9.57;;
8628;SDS011;4352;49.404;11.092;2022-11-15T02:46:35;11.97;;;8.83;;
8628;SDS011;4352;49.404;11.092;2022-11-15T02:49:21;10.67;;;8.20;;
8628;SDS011;4352;49.404;11.092;2022-11-15T02:51:49;10.30;;;8.00;;
8628;SDS011;4352;49.404;11.092;2022-11-15T02:54:19;11.23;;;8.07;;
8628;SDS011;4352;49.404;11.092;2022-11-15T02:56:47;11.87;;;8.67;;
8628;SDS011;4352;49.404;11.092;2022-11-15T03:02:15;12.67;;;7.20;;
8628;SDS011;4352;49.404;11.092;2022-11-15T03:04:46;10.47;;;6.97;;
8628;SDS011;4352;49.404;11.092;2022-11-15T03:07:15;9.63;;;7.07;;
8628;SDS011;4352;49.404;11.092;2022-11-15T03:09:45;9.27;;;6.53;;
8628;SDS011;4352;49.404;11.092;2022-11-15T03:12:18;10.47;;;7.07;;
8628;SDS011;4352;49.404;11.092;2022-11-15T03:14:51;11.10;;;7.10;;
8628;SDS011;4352;49.404;11.092;2022-11-15T03:17:23;9.83;;;7.00;;
8628;SDS011;4352;49.404;11.092;2022-11-15T03:19:51;10.67;;;6.93;;
8628;SDS011;4352;49.404;11.092;2022-11-15T03:22:20;10.50;;;7.40;;
8628;SDS011;4352;49.404;11.092;2022-11-15T03:24:50;8.40;;;6.80;;
8628;SDS011;4352;49.404;11.092;2022-11-15T03:27:20;9.33;;;7.03;;
8628;SDS011;4352;49.404;11.092;2022-11-15T03:29:49;10.20;;;6.63;;
8628;SDS011;4352;49.404;11.092;2022-11-15T03:32:17;8.57;;;6.03;;
8628;SDS011;4352;49.404;11.092;2022-11-15T03:34:47;9.30;;;6.90;;
8628;SDS011;4352;49.404;11.092;2022-11-15T03:37:16;9.77;;;6.73;;
8628;SDS011;4352;49.404;11.092;2022-11-15T03:39:44;11.43;;;7.00;;
8628;SDS011;4352;49.404;11.092;2022-11-15T03:42:14;11.10;;;6.83;;
8628;SDS011;4352;49.404;11.092;2022-11-15T03:44:45;10.17;;;6.63;;
8628;SDS011;4352;49.404;11.092;2022-11-15T03:47:18;17.23;;;6.80;;
8628;SDS011;4352;49.404;11.092;2022-11-15T03:49:49;9.97;;;6.47;;
8628;SDS011;4352;49.404;11.092;2022-11-15T03:52:18;10.00;;;6.57;;
8628;SDS011;4352;49.404;11.092;2022-11-15T03:54:52;9.43;;;6.77;;
8628;SDS011;4352;49.404;11.092;2022-11-15T03:57:20;11.03;;;7.47;;
8628;SDS011;4352;49.404;11.092;2022-11-15T03:59:47;10.83;;;6.77;;
8628;SDS011;4352;49.404;11.092;2022-11-15T04:02:14;9.77;;;6.37;;
8628;SDS011;4352;49.404;11.092;2022-11-15T04:04:42;12.07;;;7.33;;
8628;SDS011;4352;49.404;11.092;2022-11-15T04:07:11;8.43;;;6.50;;
8628;SDS011;4352;49.404;11.092;2022-11-15T04:09:38;9.33;;;7.07;;
8628;SDS011;4352;49.404;11.092;2022-11-15T04:12:19;9.37;;;6.60;;
8628;SDS011;4352;49.404;11.092;2022-11-15T04:14:55;12.63;;;7.50;;
8628;SDS011;4352;49.404;11.092;2022-11-15T04:17:33;10.30;;;7.13;;
8628;SDS011;4352;49.404;11.092;2022-11-15T04:20:00;10.37;;;6.77;;
8628;SDS011;4352;49.404;11.092;2022-11-15T04:22:46;9.77;;;6.50;;
8628;SDS011;4352;49.404;11.092;2022-11-15T04:25:31;7.77;;;6.30;;
8628;SDS011;4352;49.404;11.092;2022-11-15T04:27:58;9.77;;;6.67;;
8628;SDS011;4352;49.404;11.092;2022-11-15T04:30:25;12.17;;;7.30;;
8628;SDS011;4352;49.404;11.092;2022-11-15T04:32:52;13.90;;;7.87;;
8628;SDS011;4352;49.404;11.092;2022-11-15T04:35:19;14.23;;;8.73;;
8628;SDS011;4352;49.404;11.092;2022-11-15T04:37:47;13.10;;;8.27;;
8628;SDS011;4352;49.404;11.092;2022-11-15T04:40:15;13.23;;;8.77;;
8628;SDS011;4352;49.404;11.092;2022-11-15T04:42:42;16.83;;;8.80;;
8628;SDS011;4352;49.404;11.092;2022-11-15T04:45:09;21.87;;;12.77;;
8628;SDS011;4352;49.404;11.092;2022-11-15T04:47:36;16.27;;;9.63;;
8628;SDS011;4352;49.404;11.092;2022-11-15T04:50:04;17.37;;;11.77;;
8628;SDS011;4352;49.404;11.092;2022-11-15T04:52:31;16.87;;;11.37;;
8628;SDS011;4352;49.404;11.092;2022-11-15T04:54:59;17.00;;;10.87;;
8628;SDS011;4352;49.404;11.092;2022-11-15T04:57:27;19.13;;;11.47;;
8628;SDS011;4352;49.404;11.092;2022-11-15T04:59:54;17.50;;;11.80;;
8628;SDS011;4352;49.404;11.092;2022-11-15T05:02:21;16.03;;;9.70;;
8628;SDS011;4352;49.404;11.092;2022-11-15T05:04:48;15.60;;;10.63;;
8628;SDS011;4352;49.404;11.092;2022-11-15T05:07:14;15.50;;;11.03;;
8628;SDS011;4352;49.404;11.092;2022-11-15T05:09:43;13.87;;;9.80;;
8628;SDS011;4352;49.404;11.092;2022-11-15T05:12:11;14.60;;;8.63;;
8628;SDS011;4352;49.404;11.092;2022-11-15T05:14:38;11.87;;;8.27;;
8628;SDS011;4352;49.404;11.092;2022-11-15T05:17:05;11.27;;;7.97;;
8628;SDS011;4352;49.404;11.092;2022-11-15T05:19:32;12.30;;;7.43;;
8628;SDS011;4352;49.404;11.092;2022-11-15T05:21:59;11.60;;;8.10;;
8628;SDS011;4352;49.404;11.092;2022-11-15T05:24:26;12.27;;;7.33;;
8628;SDS011;4352;49.404;11.092;2022-11-15T05:26:54;15.53;;;9.60;;
8628;SDS011;4352;49.404;11.092;2022-11-15T05:29:22;13.27;;;8.73;;
8628;SDS011;4352;49.404;11.092;2022-11-15T05:31:49;15.10;;;8.60;;
8628;SDS011;4352;49.404;11.092;2022-11-15T05:34:16;14.80;;;9.77;;
8628;SDS011;4352;49.404;11.092;2022-11-15T05:36:43;14.30;;;9.70;;
8628;SDS011;4352;49.404;11.092;2022-11-15T05:39:11;14.83;;;9.87;;
8628;SDS011;4352;49.404;11.092;2022-11-15T05:41:40;14.87;;;8.87;;
8628;SDS011;4352;49.404;11.092;2022-11-15T05:44:08;15.43;;;8.67;;
8628;SDS011;4352;49.404;11.092;2022-11-15T05:46:37;13.13;;;8.83;;
8628;SDS011;4352;49.404;11.092;2022-11-15T05:49:05;12.73;;;9.03;;
8628;SDS011;4352;49.404;11.092;2022-11-15T05:51:34;14.17;;;9.00;;
8628;SDS011;4352;49.404;11.092;2022-11-15T05:54:01;14.50;;;8.63;;
8628;SDS011;4352;49.404;11.092;2022-11-15T05:56:29;11.60;;;8.03;;
8628;SDS011;4352;49.404;11.092;2022-11-15T05:58:56;12.97;;;9.30;;
8628;SDS011;4352;49.404;11.092;2022-11-15T06:01:24;12.60;;;8.43;;
8628;SDS011;4352;49.404;11.092;2022-11-15T06:03:53;9.83;;;7.63;;
8628;SDS011;4352;49.404;11.092;2022-11-15T06:06:20;13.37;;;7.97;;
8628;SDS011;4352;49.404;11.092;2022-11-15T06:08:47;11.37;;;7.63;;
8628;SDS011;4352;49.404;11.092;2022-11-15T06:11:14;9.17;;;6.67;;
8628;SDS011;4352;49.404;11.092;2022-11-15T06:13:41;11.60;;;7.40;;
8628;SDS011;4352;49.404;11.092;2022-11-15T06:16:08;9.67;;;7.10;;
8628;SDS011;4352;49.404;11.092;2022-11-15T06:18:36;9.87;;;6.90;;
8628;SDS011;4352;49.404;11.092;2022-11-15T06:21:05;8.97;;;6.83;;
8628;SDS011;4352;49.404;11.092;2022-11-15T06:23:32;14.03;;;8.20;;
8628;SDS011;4352;49.404;11.092;2022-11-15T06:26:00;9.63;;;7.40;;
8628;SDS011;4352;49.404;11.092;2022-11-15T06:28:28;10.77;;;6.93;;
8628;SDS011;4352;49.404;11.092;2022-11-15T06:30:55;10.17;;;7.33;;
8628;SDS011;4352;49.404;11.092;2022-11-15T06:33:22;10.77;;;6.63;;
8628;SDS011;4352;49.404;11.092;2022-11-15T06:35:49;9.77;;;6.63;;
8628;SDS011;4352;49.404;11.092;2022-11-15T06:38:18;11.17;;;7.30;;
8628;SDS011;4352;49.404;11.092;2022-11-15T06:40:45;10.63;;;7.33;;
8628;SDS011;4352;49.404;11.092;2022-11-15T06:43:12;11.03;;;6.27;;
8628;SDS011;4352;49.404;11.092;2022-11-15T06:45:40;9.60;;;6.77;;
8628;SDS011;4352;49.404;11.092;2022-11-15T06:48:07;8.17;;;5.67;;
8628;SDS011;4352;49.404;11.092;2022-11-15T06:50:34;7.83;;;6.37;;
8628;SDS011;4352;49.404;11.092;2022-11-15T06:53:01;11.83;;;6.27;;
8628;SDS011;4352;49.404;11.092;2022-11-15T06:55:30;9.80;;;6.73;;
8628;SDS011;4352;49.404;11.092;2022-11-15T06:57:57;7.73;;;5.77;;
8628;SDS011;4352;49.404;11.092;2022-11-15T07:00:24;10.50;;;6.50;;
8628;SDS011;4352;49.404;11.092;2022-11-15T07:02:51;8.47;;;6.43;;
8628;SDS011;4352;49.404;11.092;2022-11-15T07:05:18;11.33;;;6.13;;
8628;SDS011;4352;49.404;11.092;2022-11-15T07:07:50;10.10;;;7.10;;
8628;SDS011;4352;49.404;11.092;2022-11-15T07:10:18;9.80;;;6.53;;
8628;SDS011;4352;49.404;11.092;2022-11-15T07:12:47;11.03;;;7.00;;
8628;SDS011;4352;49.404;11.092;2022-11-15T07:15:14;11.47;;;7.50;;
8628;SDS011;4352;49.404;11.092;2022-11-15T07:17:42;9.37;;;6.40;;
8628;SDS011;4352;49.404;11.092;2022-11-15T07:20:09;10.30;;;6.40;;
8628;SDS011;4352;49.404;11.092;2022-11-15T07:22:38;8.33;;;5.93;;
8628;SDS011;4352;49.404;11.092;2022-11-15T07:25:05;10.50;;;6.77;;
8628;SDS011;4352;49.404;11.092;2022-11-15T07:27:32;8.23;;;5.97;;
8628;SDS011;4352;49.404;11.092;2022-11-15T07:30:01;11.23;;;6.60;;
8628;SDS011;4352;49.404;11.092;2022-11-15T07:32:28;8.73;;;6.10;;
8628;SDS011;4352;49.404;11.092;2022-11-15T07:34:55;7.13;;;5.47;;
8628;SDS011;4352;49.404;11.092;2022-11-15T07:37:22;7.10;;;5.30;;
8628;SDS011;4352;49.404;11.092;2022-11-15T07:39:49;7.87;;;5.77;;
8628;SDS011;4352;49.404;11.092;2022-11-15T07:42:16;8.67;;;5.43;;
8628;SDS011;4352;49.404;11.092;2022-11-15T07:45:02;8.93;;;5.97;;
8628;SDS011;4352;49.404;11.092;2022-11-15T07:47:30;9.07;;;5.20;;
8628;SDS011;4352;49.404;11.092;2022-11-15T07:49:57;6.77;;;4.83;;
8628;SDS011;4352;49.404;11.092;2022-11-15T07:52:24;6.97;;;5.10;;
8628;SDS011;4352;49.404;11.092;2022-11-15T07:54:51;6.57;;;5.23;;
8628;SDS011;4352;49.404;11.092;2022-11-15T07:57:18;4.97;;;4.47;;
8628;SDS011;4352;49.404;11.092;2022-11-15T07:59:45;6.80;;;4.47;;
8628;SDS011;4352;49.404;11.092;2022-11-15T08:02:13;8.03;;;4.67;;
8628;SDS011;4352;49.404;11.092;2022-11-15T08:04:42;5.90;;;3.80;;
8628;SDS011;4352;49.404;11.092;2022-11-15T08:07:09;7.13;;;4.77;;
8628;SDS011;4352;49.404;11.092;2022-11-15T08:09:37;6.93;;;4.40;;
8628;SDS011;4352;49.404;11.092;2022-11-15T08:12:04;6.87;;;4.77;;
8628;SDS011;4352;49.404;11.092;2022-11-15T08:14:31;7.37;;;4.37;;
8628;SDS011;4352;49.404;11.092;2022-11-15T08:16:58;6.87;;;3.90;;
8628;SDS011;4352;49.404;11.092;2022-11-15T08:19:27;6.03;;;4.43;;
8628;SDS011;4352;49.404;11.092;2022-11-15T08:21:54;7.73;;;4.97;;
8628;SDS011;4352;49.404;11.092;2022-11-15T08:24:21;7.67;;;5.13;;
8628;SDS011;4352;49.404;11.092;2022-11-15T08:26:48;8.33;;;4.50;;
8628;SDS011;4352;49.404;11.092;2022-11-15T08:29:15;6.33;;;4.57;;
8628;SDS011;4352;49.404;11.092;2022-11-15T08:31:42;5.37;;;4.30;;
8628;SDS011;4352;49.404;11.092;2022-11-15T08:34:09;5.87;;;4.33;;
8628;SDS011;4352;49.404;11.092;2022-11-15T08:36:38;5.90;;;4.30;;
8628;SDS011;4352;49.404;11.092;2022-11-15T08:39:05;7.10;;;4.30;;
8628;SDS011;4352;49.404;11.092;2022-11-15T08:41:33;6.83;;;4.17;;
8628;SDS011;4352;49.404;11.092;2022-11-15T08:44:00;5.97;;;4.40;;
8628;SDS011;4352;49.404;11.092;2022-11-15T08:46:27;7.10;;;4.43;;
8628;SDS011;4352;49.404;11.092;2022-11-15T08:48:54;5.20;;;4.20;;
8628;SDS011;4352;49.404;11.092;2022-11-15T08:51:22;4.00;;;3.57;;
8628;SDS011;4352;49.404;11.092;2022-11-15T08:53:50;5.47;;;3.77;;
8628;SDS011;4352;49.404;11.092;2022-11-15T08:56:17;4.33;;;3.90;;
8628;SDS011;4352;49.404;11.092;2022-11-15T08:58:44;4.80;;;3.77;;
8628;SDS011;4352;49.404;11.092;2022-11-15T09:01:15;4.90;;;3.57;;
8628;SDS011;4352;49.404;11.092;2022-11-15T09:03:42;4.33;;;3.37;;
8628;SDS011;4352;49.404;11.092;2022-11-15T09:06:10;3.73;;;3.10;;
8628;SDS011;4352;49.404;11.092;2022-11-15T09:08:37;3.87;;;3.47;;
8628;SDS011;4352;49.404;11.092;2022-11-15T09:11:06;3.53;;;2.80;;
8628;SDS011;4352;49.404;11.092;2022-11-15T09:13:33;4.20;;;3.57;;
8628;SDS011;4352;49.404;11.092;2022-11-15T09:16:02;3.30;;;3.00;;
8628;SDS011;4352;49.404;11.092;2022-11-15T09:18:29;3.92;;;3.30;;
8628;SDS011;4352;49.404;11.092;2022-11-15T09:20:57;3.40;;;3.10;;
8628;SDS011;4352;49.404;11.092;2022-11-15T09:23:24;5.10;;;3.30;;
8628;SDS011;4352;49.404;11.092;2022-11-15T09:25:51;3.42;;;2.92;;
8628;SDS011;4352;49.404;11.092;2022-11-15T09:28:20;3.40;;;3.10;;
8628;SDS011;4352;49.404;11.092;2022-11-15T09:30:47;3.95;;;3.33;;
8628;SDS011;4352;49.404;11.092;2022-11-15T09:33:14;4.60;;;3.10;;
8628;SDS011;4352;49.404;11.092;2022-11-15T09:35:41;24.42;;;4.60;;
8628;SDS011;4352;49.404;11.092;2022-11-15T09:38:09;4.72;;;3.53;;
8628;SDS011;4352;49.404;11.092;2022-11-15T09:40:36;15.55;;;3.78;;
8628;SDS011;4352;49.404;11.092;2022-11-15T09:43:23;30.00;;;4.90;;
8628;SDS011;4352;49.404;11.092;2022-11-15T09:45:55;6.65;;;3.72;;
8628;SDS011;4352;49.404;11.092;2022-11-15T09:48:33;3.42;;;2.63;;
8628;SDS011;4352;49.404;11.092;2022-11-15T09:51:02;5.05;;;3.90;;
8628;SDS011;4352;49.404;11.092;2022-11-15T09:53:31;4.15;;;3.67;;
8628;SDS011;4352;49.404;11.092;2022-11-15T09:56:01;4.15;;;3.58;;
8628;SDS011;4352;49.404;11.092;2022-11-15T09:58:31;4.97;;;3.17;;
8628;SDS011;4352;49.404;11.092;2022-11-15T10:01:02;3.25;;;2.95;;
8628;SDS011;4352;49.404;11.092;2022-11-15T10:03:33;3.35;;;3.05;;
8628;SDS011;4352;49.404;11.092;2022-11-15T10:06:01;4.10;;;3.33;;
8628;SDS011;4352;49.404;11.092;2022-11-15T10:08:46;3.95;;;3.30;;
8628;SDS011;4352;49.404;11.092;2022-11-15T10:11:15;2.92;;;2.60;;
8628;SDS011;4352;49.404;11.092;2022-11-15T10:13:44;3.50;;;3.13;;
8628;SDS011;4352;49.404;11.092;2022-11-15T10:16:16;3.78;;;3.00;;
8628;SDS011;4352;49.404;11.092;2022-11-15T10:18:51;5.82;;;3.45;;
8628;SDS011;4352;49.404;11.092;2022-11-15T10:21:21;6.43;;;3.53;;
8628;SDS011;4352;49.404;11.092;2022-11-15T10:23:50;3.22;;;2.58;;
8628;SDS011;4352;49.404;11.092;2022-11-15T10:26:17;4.10;;;2.92;;
8628;SDS011;4352;49.404;11.092;2022-11-15T10:28:44;5.45;;;3.03;;
8628;SDS011;4352;49.404;11.092;2022-11-15T10:31:22;2.58;;;2.30;;
8628;SDS011;4352;49.404;11.092;2022-11-15T10:33:50;2.45;;;2.25;;
8628;SDS011;4352;49.404;11.092;2022-11-15T10:36:21;2.92;;;2.40;;
8628;SDS011;4352;49.404;11.092;2022-11-15T10:38:54;2.47;;;2.08;;
8628;SDS011;4352;49.404;11.092;2022-11-15T10:41:21;3.00;;;2.60;;
8628;SDS011;4352;49.404;11.092;2022-11-15T10:44:01;2.70;;;2.50;;
8628;SDS011;4352;49.404;11.092;2022-11-15T10:46:30;2.45;;;2.10;;
8628;SDS011;4352;49.404;11.092;2022-11-15T10:49:04;2.47;;;2.28;;
8628;SDS011;4352;49.404;11.092;2022-11-15T10:51:40;2.38;;;2.10;;
8628;SDS011;4352;49.404;11.092;2022-11-15T10:54:08;3.03;;;2.10;;
8628;SDS011;4352;49.404;11.092;2022-11-15T10:56:38;3.35;;;2.33;;
8628;SDS011;4352;49.404;11.092;2022-11-15T10:59:12;2.28;;;2.08;;
8628;SDS011;4352;49.404;11.092;2022-11-15T11:01:46;2.83;;;2.20;;
8628;SDS011;4352;49.404;11.092;2022-11-15T11:04:14;3.33;;;2.20;;
8628;SDS011;4352;49.404;11.092;2022-11-15T11:06:47;2.83;;;1.80;;
8628;SDS011;4352;49.404;11.092;2022-11-15T11:09:22;2.60;;;2.30;;
8628;SDS011;4352;49.404;11.092;2022-11-15T11:11:50;2.20;;;2.00;;
8628;SDS011;4352;49.404;11.092;2022-11-15T11:14:19;2.42;;;2.17;;
8628;SDS011;4352;49.404;11.092;2022-11-15T11:16:49;3.22;;;2.30;;
8628;SDS011;4352;49.404;11.092;2022-11-15T11:19:33;4.47;;;2.38;;
8628;SDS011;4352;49.404;11.092;2022-11-15T11:22:02;3.23;;;2.13;;
8628;SDS011;4352;49.404;11.092;2022-11-15T11:24:33;5.20;;;2.10;;
8628;SDS011;4352;49.404;11.092;2022-11-15T11:27:08;4.63;;;2.20;;
8628;SDS011;4352;49.404;11.092;2022-11-15T11:29:41;3.17;;;2.40;;
8628;SDS011;4352;49.404;11.092;2022-11-15T11:32:17;3.50;;;2.20;;
8628;SDS011;4352;49.404;11.092;2022-11-15T11:34:50;2.70;;;2.23;;
8628;SDS011;4352;49.404;11.092;2022-11-15T11:37:20;5.17;;;2.13;;
8628;SDS011;4352;49.404;11.092;2022-11-15T11:39:54;2.20;;;1.90;;
8628;SDS011;4352;49.404;11.092;2022-11-15T11:42:25;3.03;;;2.20;;
8628;SDS011;4352;49.404;11.092;2022-11-15T11:44:55;2.50;;;2.00;;
8628;SDS011;4352;49.404;11.092;2022-11-15T11:47:30;2.33;;;1.97;;
8628;SDS011;4352;49.404;11.092;2022-11-15T11:49:59;3.07;;;2.10;;
8628;SDS011;4352;49.404;11.092;2022-11-15T11:52:28;2.30;;;2.07;;
8628;SDS011;4352;49.404;11.092;2022-11-15T11:55:01;3.00;;;2.10;;
8628;SDS011;4352;49.404;11.092;2022-11-15T11:57:33;2.73;;;2.20;;
8628;SDS011;4352;49.404;11.092;2022-11-15T12:00:04;3.33;;;2.30;;
8628;SDS011;4352;49.404;11.092;2022-11-15T12:02:36;2.83;;;2.10;;
8628;SDS011;4352;49.404;11.092;2022-11-15T12:05:09;3.83;;;2.20;;
8628;SDS011;4352;49.404;11.092;2022-11-15T12:07:36;2.60;;;2.07;;
8628;SDS011;4352;49.404;11.092;2022-11-15T12:10:14;2.53;;;2.33;;
8628;SDS011;4352;49.404;11.092;2022-11-15T12:12:44;3.30;;;2.70;;
8628;SDS011;4352;49.404;11.092;2022-11-15T12:15:15;3.57;;;2.53;;
8628;SDS011;4352;49.404;11.092;2022-11-15T12:17:44;3.00;;;2.43;;
8628;SDS011;4352;49.404;11.092;2022-11-15T12:20:15;3.30;;;2.30;;
8628;SDS011;4352;49.404;11.092;2022-11-15T12:22:43;2.70;;;2.13;;
8628;SDS011;4352;49.404;11.092;2022-11-15T12:25:14;3.70;;;2.20;;
8628;SDS011;4352;49.404;11.092;2022-11-15T12:27:45;2.07;;;1.87;;
8628;SDS011;4352;49.404;11.092;2022-11-15T12:30:14;3.20;;;2.30;;
8628;SDS011;4352;49.404;11.092;2022-11-15T12:32:50;8.60;;;2.10;;
8628;SDS011;4352;49.404;11.092;2022-11-15T12:35:21;2.77;;;2.20;;
8628;SDS011;4352;49.404;11.092;2022-11-15T12:37:49;4.47;;;2.00;;
8628;SDS011;4352;49.404;11.092;2022-11-15T12:40:18;3.97;;;2.10;;
8628;SDS011;4352;49.404;11.092;2022-11-15T12:42:56;2.67;;;2.00;;
8628;SDS011;4352;49.404;11.092;2022-11-15T12:45:25;4.37;;;2.10;;
8628;SDS011;4352;49.404;11.092;2022-11-15T12:47:54;3.10;;;2.13;;
8628;SDS011;4352;49.404;11.092;2022-11-15T12:55:57;2.80;;;1.87;;
8628;SDS011;4352;49.404;11.092;2022-11-15T12:58:41;3.10;;;2.30;;
8628;SDS011;4352;49.404;11.092;2022-11-15T13:01:09;4.60;;;2.10;;
8628;SDS011;4352;49.404;11.092;2022-11-15T13:03:45;5.17;;;2.20;;
8628;SDS011;4352;49.404;11.092;2022-11-15T13:06:39;3.03;;;2.00;;
8628;SDS011;4352;49.404;11.092;2022-11-15T13:11:52;3.27;;;2.17;;
8628;SDS011;4352;49.404;11.092;2022-11-15T13:17:10;2.97;;;1.90;;
8628;SDS011;4352;49.404;11.092;2022-11-15T13:19:41;3.03;;;2.23;;
8628;SDS011;4352;49.404;11.092;2022-11-15T13:22:09;5.27;;;2.00;;
8628;SDS011;4352;49.404;11.092;2022-11-15T13:24:53;2.67;;;2.10;;
8628;SDS011;4352;49.404;11.092;2022-11-15T13:27:21;2.57;;;1.97;;
8628;SDS011;4352;49.404;11.092;2022-11-15T13:29:48;7.80;;;2.33;;
8628;SDS011;4352;49.404;11.092;2022-11-15T13:32:15;2.27;;;2.07;;
8628;SDS011;4352;49.404;11.092;2022-11-15T13:34:44;5.77;;;2.50;;
8628;SDS011;4352;49.404;11.092;2022-11-15T13:37:12;6.43;;;3.83;;
8628;SDS011;4352;49.404;11.092;2022-11-15T13:39:54;9.67;;;3.83;;
8628;SDS011;4352;49.404;11.092;2022-11-15T13:42:28;6.83;;;3.70;;
8628;SDS011;4352;49.404;11.092;2022-11-15T13:44:55;5.60;;;3.40;;
8628;SDS011;4352;49.404;11.092;2022-11-15T13:47:24;5.80;;;2.80;;
8628;SDS011;4352;49.404;11.092;2022-11-15T13:49:54;3.20;;;2.20;;
8628;SDS011;4352;49.404;11.092;2022-11-15T13:52:24;3.43;;;2.10;;
8628;SDS011;4352;49.404;11.092;2022-11-15T13:54:57;7.53;;;2.57;;
8628;SDS011;4352;49.404;11.092;2022-11-15T13:57:27;2.83;;;2.30;;
8628;SDS011;4352;49.404;11.092;2022-11-15T13:59:56;3.90;;;2.47;;
8628;SDS011;4352;49.404;11.092;2022-11-15T14:02:25;3.90;;;2.30;;
8628;SDS011;4352;49.404;11.092;2022-11-15T14:04:55;5.67;;;2.50;;
8628;SDS011;4352;49.404;11.092;2022-11-15T14:07:23;3.93;;;2.63;;
8628;SDS011;4352;49.404;11.092;2022-11-15T14:09:51;4.50;;;2.93;;
8628;SDS011;4352;49.404;11.092;2022-11-15T14:12:29;2.77;;;2.43;;
8628;SDS011;4352;49.404;11.092;2022-11-15T14:14:56;6.40;;;2.83;;
8628;SDS011;4352;49.404;11.092;2022-11-15T14:17:34;3.30;;;2.60;;
8628;SDS011;4352;49.404;11.092;2022-11-15T14:20:18;4.13;;;2.50;;
8628;SDS011;4352;49.404;11.092;2022-11-15T14:22:50;4.20;;;2.90;;
8628;SDS011;4352;49.404;11.092;2022-11-15T14:25:19;3.70;;;2.80;;
8628;SDS011;4352;49.404;11.092;2022-11-15T14:30:29;3.53;;;2.67;;
8628;SDS011;4352;49.404;11.092;2022-11-15T14:32:56;4.77;;;2.90;;
8628;SDS011;4352;49.404;11.092;2022-11-15T14:35:24;6.03;;;2.77;;
8628;SDS011;4352;49.404;11.092;2022-11-15T14:37:51;5.60;;;3.97;;
8628;SDS011;4352;49.404;11.092;2022-11-15T14:40:20;3.23;;;2.63;;
8628;SDS011;4352;49.404;11.092;2022-11-15T14:42:47;8.37;;;3.30;;
8628;SDS011;4352;49.404;11.092;2022-11-15T14:45:16;3.53;;;2.97;;
8628;SDS011;4352;49.404;11.092;2022-11-15T14:47:44;6.17;;;3.40;;
8628;SDS011;4352;49.404;11.092;2022-11-15T14:50:11;4.67;;;3.43;;
8628;SDS011;4352;49.404;11.092;2022-11-15T14:52:40;4.90;;;3.50;;
8628;SDS011;4352;49.404;11.092;2022-11-15T14:55:12;5.90;;;3.57;;
8628;SDS011;4352;49.404;11.092;2022-11-15T14:57:42;5.63;;;3.37;;
8628;SDS011;4352;49.404;11.092;2022-11-15T15:00:09;7.70;;;4.00;;
8628;SDS011;4352;49.404;11.092;2022-11-15T15:02:36;7.40;;;3.90;;
8628;SDS011;4352;49.404;11.092;2022-11-15T15:05:10;7.50;;;3.57;;
8628;SDS011;4352;49.404;11.092;2022-11-15T15:07:41;6.67;;;4.20;;
8628;SDS011;4352;49.404;11.092;2022-11-15T15:10:08;8.50;;;4.73;;
8628;SDS011;4352;49.404;11.092;2022-11-15T15:12:35;6.10;;;4.50;;
8628;SDS011;4352;49.404;11.092;2022-11-15T15:15:03;5.43;;;3.77;;
8628;SDS011;4352;49.404;11.092;2022-11-15T15:17:30;7.77;;;4.20;;
8628;SDS011;4352;49.404;11.092;2022-11-15T15:19:57;4.40;;;3.40;;
8628;SDS011;4352;49.404;11.092;2022-11-15T15:22:24;4.70;;;3.53;;
8628;SDS011;4352;49.404;11.092;2022-11-15T15:24:54;6.73;;;3.87;;
8628;SDS011;4352;49.404;11.092;2022-11-15T15:27:21;8.83;;;3.77;;
8628;SDS011;4352;49.404;11.092;2022-11-15T15:29:48;8.10;;;4.60;;
8628;SDS011;4352;49.404;11.092;2022-11-15T15:32:15;9.73;;;4.23;;